Time;durP1;ratioP1;P1;durP2;ratioP2;P2;SDS_P1;SDS_P2;PMS_P1;PMS_P2;Temp;Humidity;BMP_temperature;BMP_pressure;BME280_temperature;BME280_humidity;BME280_pressure;Samples;Min_cycle;Max_cycle;Signal;HPM_P1;HPM_P2
2021/09/17 00:02:15;;;;;;;36.50;32.92;;;;;;;21.13;67.63;98708.44;5050674;28;20068;-49
2021/09/17 00:04:40;;;;;;;9.35;7.55;;;;;;;21.12;67.38;98706.81;5050684;28;20028;-49
2021/09/17 00:07:06;;;;;;;65.80;60.22;;;;;;;21.17;67.60;98696.16;5051984;28;20028;-49
2021/09/17 00:09:32;;;;;;;23.98;21.60;;;;;;;21.18;67.22;98700.41;5051945;28;20037;-49
2021/09/17 00:11:59;;;;;;;35.92;32.58;;;;;;;21.14;67.16;98699.34;5050563;28;20029;-49
2021/09/17 00:14:25;;;;;;;72.05;65.82;;;;;;;21.27;67.40;98701.47;5051884;28;20115;-49
2021/09/17 00:16:50;;;;;;;125.85;115.88;;;;;;;21.45;66.73;98685.94;5051836;28;20167;-50
2021/09/17 00:19:16;;;;;;;45.92;41.90;;;;;;;21.47;66.14;98689.16;5051518;28;20041;-49
2021/09/17 00:21:42;;;;;;;46.47;42.05;;;;;;;21.37;66.29;98689.16;5050515;28;20154;-49
2021/09/17 00:24:07;;;;;;;13.73;9.82;;;;;;;21.21;66.73;98693.72;5051751;28;20043;-48
2021/09/17 00:26:33;;;;;;;66.57;60.65;;;;;;;21.09;67.22;98696.69;5050486;28;20029;-49
2021/09/17 00:28:59;;;;;;;18.55;15.27;;;;;;;20.99;67.68;98697.50;5051768;28;20029;-48
2021/09/17 00:31:24;;;;;;;20.48;18.63;;;;;;;20.96;67.66;98698.03;5050354;28;20021;-49
2021/09/17 00:33:50;;;;;;;44.13;40.45;;;;;;;20.93;67.80;98695.91;5050422;28;20032;-49
2021/09/17 00:36:16;;;;;;;16.15;11.13;;;;;;;20.81;68.03;98696.16;5050606;28;20063;-49
2021/09/17 00:38:41;;;;;;;16.50;14.90;;;;;;;20.82;68.01;98687.09;5050360;28;20021;-49
2021/09/17 00:41:10;;;;;;;14.73;10.95;;;;;;;21.04;68.16;98689.47;5050282;28;20079;-49
2021/09/17 00:43:40;;;;;;;249.77;228.57;;;;;;;21.26;67.41;98691.84;5051649;28;20045;-49
2021/09/17 00:46:06;;;;;;;38.63;30.10;;;;;;;21.49;66.56;98682.47;5050223;28;20025;-49
2021/09/17 00:48:32;;;;;;;34.33;31.15;;;;;;;21.59;66.01;98684.31;5050220;28;20582;-49
2021/09/17 00:50:58;;;;;;;10.98;6.57;;;;;;;21.64;66.16;98678.94;5050162;28;20032;-49
2021/09/17 00:53:24;;;;;;;22.52;20.30;;;;;;;21.56;65.62;98681.41;5053488;28;20033;-50
2021/09/17 00:55:50;;;;;;;47.92;44.08;;;;;;;21.43;66.50;98682.75;5055537;28;20021;-50
2021/09/17 00:58:16;;;;;;;27.58;24.77;;;;;;;21.48;66.08;98678.19;5055521;28;20075;-49
2021/09/17 01:00:42;;;;;;;202.10;184.68;;;;;;;21.58;65.96;98682.72;5054026;28;20087;-50
2021/09/17 01:03:07;;;;;;;56.33;51.22;;;;;;;21.76;65.49;98680.53;5054055;28;20032;-49
2021/09/17 01:05:34;;;;;;;161.40;145.32;;;;;;;21.93;64.84;98688.97;5055356;28;20024;-49
2021/09/17 01:08:01;;;;;;;16.50;10.95;;;;;;;22.04;64.64;98682.50;5055303;28;20376;-49
2021/09/17 01:10:27;;;;;;;48.25;44.35;;;;;;;22.11;63.87;98683.03;5055296;28;20024;-50
2021/09/17 01:12:54;;;;;;;13.65;11.68;;;;;;;22.04;64.03;98679.84;5055226;28;20025;-49
2021/09/17 01:15:20;;;;;;;114.35;104.93;;;;;;;21.96;64.38;98684.97;5055397;28;20025;-50
2021/09/17 01:17:48;;;;;;;25.90;23.48;;;;;;;21.88;64.34;98686.34;5055174;28;20170;-49
2021/09/17 01:20:19;;;;;;;16.20;12.18;;;;;;;21.68;64.73;98681.88;5054794;28;20058;-49
2021/09/17 01:22:47;;;;;;;10.57;6.93;;;;;;;21.47;64.91;98668.59;5055124;28;20018;-49
2021/09/17 01:25:16;;;;;;;18.85;16.65;;;;;;;21.37;65.11;98675.78;5053685;28;20491;-49
2021/09/17 01:27:43;;;;;;;10.43;7.68;;;;;;;21.26;65.40;98662.47;5055013;28;20013;-49
2021/09/17 01:30:09;;;;;;;17.90;16.10;;;;;;;21.15;65.79;98652.91;5053539;28;20025;-49
2021/09/17 01:32:35;;;;;;;16.50;15.13;;;;;;;21.03;66.09;98661.19;5053575;28;20048;-49
2021/09/17 01:35:01;;;;;;;84.57;75.38;;;;;;;20.91;66.24;98660.69;5053470;28;20510;-49
2021/09/17 01:37:27;;;;;;;20.70;18.67;;;;;;;20.78;66.83;98647.88;5054786;28;20104;-49
2021/09/17 01:39:53;;;;;;;20.88;18.88;;;;;;;20.70;66.89;98649.22;5054662;28;20025;-49
2021/09/17 01:42:19;;;;;;;18.35;16.65;;;;;;;20.64;67.25;98640.41;5053302;28;20025;-49
2021/09/17 01:44:44;;;;;;;25.98;23.63;;;;;;;20.61;67.61;98645.50;5053267;28;20039;-49
2021/09/17 01:47:10;;;;;;;12.70;11.50;;;;;;;20.57;67.69;98636.41;5054501;28;20029;-49
2021/09/17 01:49:35;;;;;;;40.70;36.80;;;;;;;20.57;67.74;98642.53;5053214;28;20031;-49
2021/09/17 01:52:02;;;;;;;28.50;25.83;;;;;;;20.55;67.66;98636.66;5054461;28;20374;-49
2021/09/17 01:54:27;;;;;;;98.32;89.75;;;;;;;20.59;68.05;98634.31;5053122;28;20461;-49
2021/09/17 01:56:53;;;;;;;56.67;51.78;;;;;;;20.74;67.80;98640.44;5054386;28;20022;-49
2021/09/17 01:59:20;;;;;;;61.55;55.92;;;;;;;20.84;67.55;98647.59;5054265;28;20025;-49
2021/09/17 02:01:45;;;;;;;51.97;47.58;;;;;;;20.86;67.34;98640.13;5052979;28;20028;-49
2021/09/17 02:04:11;;;;;;;35.20;31.83;;;;;;;20.80;67.42;98637.75;5052085;28;20475;-49
2021/09/17 02:06:37;;;;;;;150.82;138.23;;;;;;;20.91;67.63;98639.34;5054204;28;20025;-49
2021/09/17 02:09:03;;;;;;;80.88;74.07;;;;;;;21.10;67.38;98628.91;5054159;28;20021;-50
2021/09/17 02:11:29;;;;;;;45.63;41.38;;;;;;;21.17;67.03;98631.28;5052837;28;20070;-49
2021/09/17 02:13:55;;;;;;;138.70;126.93;;;;;;;21.19;66.69;98623.78;5052749;28;20505;-49
2021/09/17 02:16:21;;;;;;;43.45;39.63;;;;;;;21.14;66.41;98625.41;5052691;28;20017;-49
2021/09/17 02:18:47;;;;;;;52.95;48.60;;;;;;;21.14;66.78;98622.75;5052448;28;20041;-50
2021/09/17 02:21:20;;;;;;;12.77;8.43;;;;;;;21.34;66.21;98626.44;5053816;28;20017;-49
2021/09/17 02:23:47;;;;;;;13.93;12.60;;;;;;;21.13;65.91;98618.47;5053949;28;20064;-49
2021/09/17 02:26:14;;;;;;;15.70;13.95;;;;;;;20.83;66.71;98622.00;5052554;28;20083;-49
2021/09/17 02:28:40;;;;;;;14.15;8.38;;;;;;;20.67;67.43;98623.09;5053815;28;20021;-49
2021/09/17 02:31:06;;;;;;;15.05;13.23;;;;;;;20.58;67.72;98617.47;5053743;28;20032;-49
2021/09/17 02:33:32;;;;;;;56.10;51.30;;;;;;;20.54;68.09;98621.72;5053731;28;20055;-49
2021/09/17 02:35:59;;;;;;;57.30;52.38;;;;;;;20.53;68.42;98620.94;5052326;28;20021;-49
2021/09/17 02:38:25;;;;;;;21.73;18.30;;;;;;;20.58;68.25;98614.78;5053651;28;20027;-48
2021/09/17 02:40:52;;;;;;;11.68;9.88;;;;;;;20.57;68.06;98613.22;5052339;28;20017;-49
2021/09/17 02:43:18;;;;;;;16.95;15.45;;;;;;;20.52;68.43;98614.00;5052245;28;20044;-49
2021/09/17 02:45:44;;;;;;;9.30;6.70;;;;;;;20.49;68.28;98611.88;5053476;28;20032;-49
2021/09/17 02:48:09;;;;;;;13.45;10.15;;;;;;;20.43;68.75;98615.59;5053463;28;20051;-49
2021/09/17 02:50:35;;;;;;;13.23;10.25;;;;;;;20.44;68.79;98611.84;5052101;28;20530;-49
2021/09/17 02:53:01;;;;;;;20.70;18.85;;;;;;;20.46;68.65;98611.59;5053286;28;20036;-49
2021/09/17 02:55:27;;;;;;;11.20;6.72;;;;;;;20.45;68.52;98605.47;5051957;28;20020;-49
2021/09/17 02:57:52;;;;;;;19.20;16.73;;;;;;;20.40;68.59;98604.66;5053261;28;20021;-49
2021/09/17 03:00:20;;;;;;;9.13;7.93;;;;;;;20.39;68.92;98600.41;5051798;28;20036;-49
2021/09/17 03:02:46;;;;;;;15.60;11.75;;;;;;;20.40;68.74;98604.66;5051830;28;20060;-49
2021/09/17 03:05:12;;;;;;;19.42;16.92;;;;;;;20.40;68.72;98596.66;5051781;28;20118;-49
2021/09/17 03:07:38;;;;;;;10.52;8.00;;;;;;;20.33;68.71;98584.41;5051751;28;20036;-49
2021/09/17 03:10:04;;;;;;;32.08;28.77;;;;;;;20.30;68.95;98594.78;5051689;28;20037;-49
2021/09/17 03:12:30;;;;;;;36.97;33.70;;;;;;;20.35;69.11;98594.81;5052999;28;20102;-49
2021/09/17 03:14:56;;;;;;;63.83;57.95;;;;;;;20.46;68.99;98588.41;5052910;28;20563;-49
2021/09/17 03:17:21;;;;;;;8.70;6.60;;;;;;;20.70;68.21;98587.88;5052873;28;20028;-49
2021/09/17 03:19:47;;;;;;;161.82;147.80;;;;;;;20.81;68.10;98589.47;5051149;28;20040;-49
2021/09/17 03:22:13;;;;;;;10.45;5.80;;;;;;;21.00;67.14;98578.22;5052788;28;20029;-49
2021/09/17 03:24:39;;;;;;;18.90;11.23;;;;;;;20.91;67.35;98584.13;5052720;28;20399;-49
2021/09/17 03:27:04;;;;;;;21.10;19.13;;;;;;;21.08;66.34;98581.13;5052652;28;20071;-49
2021/09/17 03:29:30;;;;;;;69.90;63.38;;;;;;;21.09;66.46;98576.59;5051303;28;20117;-49
2021/09/17 03:31:59;;;;;;;33.97;28.13;;;;;;;21.23;66.60;98577.63;5052590;28;20017;-49
2021/09/17 03:34:24;;;;;;;19.50;15.57;;;;;;;21.47;65.64;98575.16;5052864;28;20098;-49
2021/09/17 03:36:50;;;;;;;54.60;49.55;;;;;;;21.59;65.14;98576.69;5052468;28;20453;-49
2021/09/17 03:39:16;;;;;;;18.60;15.85;;;;;;;21.52;65.20;98575.13;5052418;28;20064;-49
2021/09/17 03:41:45;;;;;;;26.63;18.20;;;;;;;21.56;65.20;98579.91;5052440;28;20503;-49
2021/09/17 03:44:14;;;;;;;20.08;18.00;;;;;;;21.61;64.20;98569.19;5052398;28;20470;-49
2021/09/17 03:46:40;;;;;;;123.57;113.47;;;;;;;21.47;64.68;98567.13;5052317;28;20513;-50
2021/09/17 03:49:06;;;;;;;40.15;36.40;;;;;;;21.29;64.88;98567.72;5052262;28;20021;-50
2021/09/17 03:51:32;;;;;;;15.85;9.70;;;;;;;21.08;65.10;98564.31;5050909;28;20029;-49
2021/09/17 03:53:57;;;;;;;20.85;10.13;;;;;;;20.82;65.66;98560.94;5052203;28;20021;-49
2021/09/17 03:56:23;;;;;;;57.20;51.47;;;;;;;20.62;66.25;98562.56;5052124;28;20487;-49
2021/09/17 03:58:49;;;;;;;9.35;6.68;;;;;;;20.55;66.62;98562.00;5052167;28;20043;-49
2021/09/17 04:01:14;;;;;;;62.90;56.65;;;;;;;20.51;66.91;98556.41;5052025;28;20055;-49
2021/09/17 04:03:40;;;;;;;31.85;28.52;;;;;;;20.58;66.93;98558.00;5051950;28;20029;-50
2021/09/17 04:06:06;;;;;;;11.30;9.95;;;;;;;20.70;66.60;98553.22;5050695;28;20104;-51
2021/09/17 04:08:31;;;;;;;79.65;73.07;;;;;;;20.73;66.56;98553.47;5052058;28;20174;-49
2021/09/17 04:10:57;;;;;;;11.85;10.43;;;;;;;20.71;66.34;98554.81;5050632;28;20025;-49
2021/09/17 04:13:23;;;;;;;20.85;13.15;;;;;;;20.70;66.83;98554.00;5051963;28;20098;-49
2021/09/17 04:15:49;;;;;;;17.52;10.57;;;;;;;20.83;66.50;98551.88;5051858;28;20110;-50
2021/09/17 04:18:15;;;;;;;19.17;17.15;;;;;;;20.92;66.07;98552.91;5051574;28;20040;-50
2021/09/17 04:20:41;;;;;;;13.38;11.43;;;;;;;20.88;66.19;98552.63;5051708;28;20072;-49
2021/09/17 04:23:07;;;;;;;19.05;11.88;;;;;;;20.81;66.14;98548.66;5052034;28;20572;-49
2021/09/17 04:25:32;;;;;;;25.83;21.52;;;;;;;20.64;66.52;98555.09;5051788;28;20075;-50
2021/09/17 04:27:58;;;;;;;14.07;10.40;;;;;;;20.53;67.04;98556.16;5051312;28;20049;-49
2021/09/17 04:30:24;;;;;;;9.68;6.43;;;;;;;20.64;66.88;98556.97;5050342;28;20064;-49
2021/09/17 04:32:50;;;;;;;51.08;47.00;;;;;;;20.58;67.12;98555.34;5051671;28;20032;-49
2021/09/17 04:35:16;;;;;;;106.07;96.82;;;;;;;20.72;67.39;98556.41;5051677;28;20385;-50
2021/09/17 04:37:45;;;;;;;484.98;432.52;;;;;;;20.87;66.67;98547.59;5051570;28;20025;-49
2021/09/17 04:40:13;;;;;;;20.55;11.95;;;;;;;20.96;66.20;98548.63;5051498;28;20029;-49
2021/09/17 04:42:39;;;;;;;152.52;139.55;;;;;;;20.92;66.15;98544.88;5051523;28;20021;-49
2021/09/17 04:45:06;;;;;;;40.70;36.72;;;;;;;20.90;66.61;98542.50;5051542;28;20061;-49
2021/09/17 04:47:32;;;;;;;17.83;11.48;;;;;;;20.97;65.79;98549.41;5050292;28;20025;-49
2021/09/17 04:49:59;;;;;;;151.65;139.55;;;;;;;20.80;66.49;98542.50;5051820;28;20155;-49
2021/09/17 04:52:26;;;;;;;85.05;77.32;;;;;;;20.94;66.49;98542.75;5050155;28;20028;-49
2021/09/17 04:54:52;;;;;;;17.08;13.35;;;;;;;21.05;65.64;98536.31;5050158;28;20483;-49
2021/09/17 04:57:18;;;;;;;90.03;82.10;;;;;;;20.87;66.18;98542.25;5051518;28;20028;-50
2021/09/17 04:59:44;;;;;;;11.70;10.55;;;;;;;20.83;66.40;98544.66;5051330;28;20029;-49
2021/09/17 05:02:10;;;;;;;61.08;56.10;;;;;;;20.90;66.21;98539.81;5050098;28;20036;-49
2021/09/17 05:04:36;;;;;;;15.52;9.77;;;;;;;20.98;65.70;98553.69;5051392;28;20480;-50
2021/09/17 05:07:01;;;;;;;68.47;61.92;;;;;;;20.86;66.00;98548.66;5051339;28;20491;-49
2021/09/17 05:09:30;;;;;;;20.00;17.98;;;;;;;20.77;66.27;98548.41;5051402;28;20032;-49
2021/09/17 05:11:57;;;;;;;9.90;7.93;;;;;;;20.58;66.55;98548.13;5051514;28;20070;-49
2021/09/17 05:14:22;;;;;;;14.30;11.43;;;;;;;20.44;67.32;98550.53;5051315;28;20519;-50
2021/09/17 05:16:48;;;;;;;11.60;9.68;;;;;;;20.35;67.51;98554.84;5049899;28;20115;-49
2021/09/17 05:19:14;;;;;;;15.63;12.70;;;;;;;20.26;67.75;98548.44;5049857;28;20052;-49
2021/09/17 05:21:40;;;;;;;30.95;27.05;;;;;;;20.25;68.37;98555.63;5051134;28;20028;-49
2021/09/17 05:24:06;;;;;;;22.83;9.93;;;;;;;20.33;67.89;98562.28;5049931;28;20398;-49
2021/09/17 05:26:32;;;;;;;20.15;16.67;;;;;;;20.31;68.17;98569.75;5051140;28;20037;-49
2021/09/17 05:28:57;;;;;;;46.60;41.88;;;;;;;20.29;68.12;98563.91;5051184;28;20549;-49
2021/09/17 05:31:23;;;;;;;37.25;33.75;;;;;;;20.27;68.14;98566.81;5049846;28;20109;-49
2021/09/17 05:33:49;;;;;;;132.93;121.68;;;;;;;20.25;68.23;98568.94;5051197;28;20589;-49
2021/09/17 05:36:15;;;;;;;30.95;27.95;;;;;;;20.22;68.30;98574.81;5051182;28;20114;-49
2021/09/17 05:38:40;;;;;;;46.97;42.15;;;;;;;20.29;68.36;98574.56;5050052;28;20028;-49
2021/09/17 05:41:06;;;;;;;80.65;72.82;;;;;;;20.30;67.93;98581.47;5053353;28;20035;-49
2021/09/17 05:43:32;;;;;;;506.60;416.73;;;;;;;20.29;67.84;98583.34;5053345;28;20074;-49
2021/09/17 05:45:58;;;;;;;505.42;390.25;;;;;;;20.29;67.93;98575.34;5054630;28;20042;-49
2021/09/17 05:48:27;;;;;;;61.78;50.67;;;;;;;20.26;67.71;98577.75;5053291;28;20033;-49
2021/09/17 05:50:53;;;;;;;61.40;55.20;;;;;;;20.19;67.71;98574.56;5054576;28;20021;-49
2021/09/17 05:53:19;;;;;;;54.90;45.33;;;;;;;20.16;67.75;98570.53;5054498;28;20021;-49
2021/09/17 05:55:45;;;;;;;17.05;10.77;;;;;;;20.13;67.77;98577.19;5054421;28;20057;-49
2021/09/17 05:58:11;;;;;;;27.83;24.67;;;;;;;20.13;67.49;98571.09;5054445;28;20556;-49
2021/09/17 06:00:36;;;;;;;138.15;104.45;;;;;;;20.17;67.37;98571.34;5054452;28;20067;-49
2021/09/17 06:03:03;;;;;;;21.80;17.67;;;;;;;20.11;67.06;98571.34;5054334;28;20025;-49
2021/09/17 06:05:29;;;;;;;16.20;8.55;;;;;;;20.07;67.75;98574.81;5052996;28;20029;-49
2021/09/17 06:07:54;;;;;;;13.30;9.73;;;;;;;20.06;67.80;98579.34;5054190;28;20029;-49
2021/09/17 06:10:20;;;;;;;25.98;17.52;;;;;;;20.03;67.51;98582.53;5054210;28;20052;-49
2021/09/17 06:12:46;;;;;;;22.77;18.50;;;;;;;20.09;67.33;98578.81;5052817;28;20029;-49
2021/09/17 06:15:15;;;;;;;69.43;62.60;;;;;;;20.21;67.01;98580.41;5054073;28;20114;-49
2021/09/17 06:17:41;;;;;;;37.70;28.90;;;;;;;20.31;66.64;98586.53;5054247;28;20439;-49
2021/09/17 06:20:09;;;;;;;16.25;10.38;;;;;;;20.34;66.33;98582.53;5052377;28;20133;-49
2021/09/17 06:22:35;;;;;;;16.52;12.65;;;;;;;20.33;66.32;98584.41;5053852;28;20523;-49
2021/09/17 06:25:00;;;;;;;14.23;11.82;;;;;;;20.30;66.27;98589.47;5052629;28;20021;-49
2021/09/17 06:27:26;;;;;;;29.13;24.60;;;;;;;20.25;66.41;98586.81;5053894;28;20055;-49
2021/09/17 06:29:52;;;;;;;14.38;8.35;;;;;;;20.18;66.65;98589.72;5052505;28;20028;-48
2021/09/17 06:32:17;;;;;;;21.80;14.90;;;;;;;20.14;66.95;98591.31;5054120;28;20029;-48
2021/09/17 06:34:43;;;;;;;18.55;9.10;;;;;;;20.05;67.05;98585.72;5052420;28;20116;-49
2021/09/17 06:37:09;;;;;;;20.52;18.52;;;;;;;19.99;67.28;98581.44;5053695;28;20108;-49
2021/09/17 06:39:36;;;;;;;14.00;9.77;;;;;;;19.94;67.61;98586.75;5052241;28;20028;-49
2021/09/17 06:42:02;;;;;;;11.88;9.38;;;;;;;19.96;67.62;98582.00;5053566;28;20564;-48
2021/09/17 06:44:29;;;;;;;21.75;19.23;;;;;;;20.00;67.58;98590.25;5053518;28;20410;-49
2021/09/17 06:46:57;;;;;;;20.15;12.70;;;;;;;20.03;67.32;98582.53;5053731;28;20383;-49
2021/09/17 06:49:22;;;;;;;25.25;22.80;;;;;;;19.98;67.40;98585.19;5053296;28;20108;-49
2021/09/17 06:51:48;;;;;;;121.80;111.15;;;;;;;20.02;67.62;98582.78;5053257;28;20112;-49
2021/09/17 06:54:14;;;;;;;173.80;159.52;;;;;;;20.23;67.54;98583.63;5052070;28;20106;-49
2021/09/17 06:56:40;;;;;;;19.15;15.45;;;;;;;20.41;66.59;98592.94;5051972;28;20423;-49
2021/09/17 06:59:05;;;;;;;61.92;56.63;;;;;;;20.46;66.44;98591.06;5053297;28;20027;-49
2021/09/17 07:01:31;;;;;;;16.50;9.77;;;;;;;20.51;66.04;98583.06;5051805;28;20051;-48
2021/09/17 07:03:57;;;;;;;51.60;46.88;;;;;;;20.47;65.96;98590.00;5053191;28;20364;-49
2021/09/17 07:06:22;;;;;;;278.23;256.23;;;;;;;20.42;65.70;98591.88;5053073;28;20032;-49
2021/09/17 07:08:52;;;;;;;11.02;9.88;;;;;;;20.27;66.08;98587.34;5051758;28;20541;-49
2021/09/17 07:11:18;;;;;;;20.88;18.85;;;;;;;20.32;66.06;98582.81;5053045;28;20025;-49
2021/09/17 07:13:44;;;;;;;14.75;13.45;;;;;;;20.40;65.68;98586.81;5051651;28;20021;-49
2021/09/17 07:16:09;;;;;;;15.35;12.95;;;;;;;20.45;65.43;98576.16;5051573;28;20548;-49
2021/09/17 07:18:35;;;;;;;65.53;59.63;;;;;;;20.52;65.00;98575.88;5052613;28;20037;-49
2021/09/17 07:21:01;;;;;;;92.00;82.00;;;;;;;20.54;65.21;98577.22;5052849;28;20052;-48
2021/09/17 07:23:28;;;;;;;146.20;134.30;;;;;;;20.54;65.32;98579.06;5052740;28;20041;-49
2021/09/17 07:25:53;;;;;;;181.02;166.82;;;;;;;20.54;65.71;98571.88;5051450;28;20025;-49
2021/09/17 07:28:19;;;;;;;33.97;30.73;;;;;;;20.82;65.07;98564.38;5052727;28;20503;-49
2021/09/17 07:30:45;;;;;;;24.13;16.40;;;;;;;20.99;64.53;98572.09;5051290;28;20029;-49
2021/09/17 07:33:13;;;;;;;73.40;66.78;;;;;;;21.10;63.75;98572.84;5052665;28;20025;-49
2021/09/17 07:35:38;;;;;;;143.73;131.93;;;;;;;21.04;63.80;98564.06;5052523;28;20021;-49
2021/09/17 07:38:04;;;;;;;207.05;189.40;;;;;;;21.03;63.85;98575.81;5052486;28;20087;-49
2021/09/17 07:40:31;;;;;;;97.25;88.75;;;;;;;21.06;64.06;98574.47;5052399;28;20116;-48
2021/09/17 07:42:57;;;;;;;122.43;111.22;;;;;;;21.07;63.64;98578.75;5052438;28;20024;-48
2021/09/17 07:45:25;;;;;;;172.50;155.63;;;;;;;21.02;63.62;98576.88;5051051;28;20120;-49
2021/09/17 07:47:52;;;;;;;165.23;150.77;;;;;;;21.02;64.05;98576.09;5052523;28;20025;-49
2021/09/17 07:50:18;;;;;;;31.95;27.67;;;;;;;21.11;63.79;98572.59;5052316;28;20137;-49
2021/09/17 07:52:45;;;;;;;91.38;81.97;;;;;;;21.31;63.38;98577.06;5052248;28;20029;-49
2021/09/17 07:55:11;;;;;;;208.10;189.05;;;;;;;21.38;63.09;98573.28;5052211;28;20108;-49
2021/09/17 07:57:38;;;;;;;42.55;38.28;;;;;;;21.24;63.25;98578.41;5052149;28;20021;-49
2021/09/17 08:00:07;;;;;;;141.10;128.98;;;;;;;21.15;63.46;98578.97;5050749;28;20060;-49
2021/09/17 08:02:33;;;;;;;196.88;180.52;;;;;;;21.13;63.49;98575.00;5051443;28;20082;-49
2021/09/17 08:04:58;;;;;;;97.90;89.65;;;;;;;21.12;63.58;98576.84;5050782;28;20037;-49
2021/09/17 08:07:24;;;;;;;24.05;21.52;;;;;;;21.12;63.54;98578.72;5052041;28;20086;-49
2021/09/17 08:09:50;;;;;;;47.30;42.60;;;;;;;21.05;63.39;98572.88;5052022;28;20064;-49
2021/09/17 08:12:16;;;;;;;38.55;30.80;;;;;;;20.99;63.71;98572.09;5050620;28;20028;-49
2021/09/17 08:14:42;;;;;;;99.28;90.30;;;;;;;21.03;63.73;98578.47;5051877;28;20047;-49
2021/09/17 08:17:08;;;;;;;17.83;12.32;;;;;;;21.10;63.69;98584.31;5050583;28;20052;-49
2021/09/17 08:19:34;;;;;;;35.67;31.63;;;;;;;21.17;63.76;98581.38;5051562;28;20045;-49
2021/09/17 08:22:01;;;;;;;24.58;14.35;;;;;;;21.29;63.20;98581.88;5051700;28;20056;-49
2021/09/17 08:24:27;;;;;;;19.52;10.23;;;;;;;21.49;62.87;98574.84;5051788;28;20116;-49
2021/09/17 08:26:53;;;;;;;34.03;23.15;;;;;;;21.66;62.10;98569.97;5050462;28;20028;-49
2021/09/17 08:29:19;;;;;;;24.80;13.80;;;;;;;21.62;62.22;98574.25;5050372;28;20054;-49
2021/09/17 08:31:48;;;;;;;16.30;9.70;;;;;;;21.70;62.48;98576.34;5051678;28;20025;-50
2021/09/17 08:34:15;;;;;;;10.38;8.02;;;;;;;21.84;61.68;98575.75;5051690;28;20036;-49
2021/09/17 08:36:40;;;;;;;17.65;8.32;;;;;;;21.96;61.21;98583.44;5051680;28;20035;-49
2021/09/17 08:39:07;;;;;;;23.73;20.33;;;;;;;21.98;61.38;98575.94;5051669;28;20051;-49
2021/09/17 08:41:34;;;;;;;17.27;14.20;;;;;;;22.27;60.88;98568.78;5050184;28;20028;-49
2021/09/17 08:44:01;;;;;;;14.43;8.60;;;;;;;22.74;59.03;98572.66;5051904;28;20108;-49
2021/09/17 08:46:27;;;;;;;17.15;10.75;;;;;;;23.20;57.49;98568.72;5051534;28;20024;-49
2021/09/17 08:48:54;;;;;;;694.60;609.33;;;;;;;23.49;57.57;98568.59;5050228;28;20033;-50
2021/09/17 08:51:21;;;;;;;279.77;225.88;;;;;;;23.69;55.96;98564.84;5051491;28;20017;-49
2021/09/17 08:53:47;;;;;;;55.30;43.47;;;;;;;23.68;55.14;98567.81;5050192;28;20507;-49
2021/09/17 08:56:19;;;;;;;122.22;109.07;;;;;;;23.76;54.75;98564.47;5051503;28;20414;-49
2021/09/17 08:58:47;;;;;;;30.38;27.25;;;;;;;23.96;54.18;98568.78;5051443;28;20044;-49
2021/09/17 09:01:32;;;;;;;24.52;20.83;;;;;;;24.07;54.36;98570.22;5051414;28;20028;-49
2021/09/17 09:04:02;;;;;;;80.40;73.22;;;;;;;24.42;53.57;98565.38;5050126;28;20124;-49
2021/09/17 09:06:36;;;;;;;8.90;4.90;;;;;;;25.99;50.88;98558.28;5051248;28;20064;-49
2021/09/17 09:09:03;;;;;;;7.72;6.95;;;;;;;28.21;45.20;98554.56;5051450;28;20032;-51
2021/09/17 09:11:30;;;;;;;18.90;17.02;;;;;;;29.73;41.84;98559.50;5051340;28;20446;-49
2021/09/17 09:14:00;;;;;;;5.93;4.03;;;;;;;30.03;40.25;98554.78;5053718;28;20075;-50
2021/09/17 09:16:27;;;;;;;59.38;54.35;;;;;;;29.65;40.75;98548.38;5055201;28;20017;-49
2021/09/17 09:18:53;;;;;;;25.40;23.00;;;;;;;28.83;42.15;98556.00;5053646;28;20111;-49
2021/09/17 09:21:27;;;;;;;15.27;11.80;;;;;;;28.42;42.97;98565.50;5055343;28;20495;-50
2021/09/17 09:24:13;;;;;;;17.23;15.85;;;;;;;28.25;43.03;98556.31;5055089;28;20517;-49
2021/09/17 09:26:40;;;;;;;32.92;29.27;;;;;;;28.55;42.47;98548.31;5054983;28;20112;-50
2021/09/17 09:29:25;;;;;;;7.75;7.00;;;;;;;28.68;41.75;98549.25;5054987;28;20023;-49
2021/09/17 09:31:53;;;;;;;;;;;;;;;28.67;43.24;98547.66;5055359;28;20530;-50
2021/09/17 09:34:21;;;;;;;13.02;11.48;;;;;;;29.43;41.16;98546.00;5054930;28;19952;-50
2021/09/17 09:36:48;;;;;;;4.82;4.43;;;;;;;31.18;38.17;98543.16;5054853;28;20051;-50
2021/09/17 09:39:13;;;;;;;5.13;4.18;;;;;;;32.36;35.56;98536.81;5054838;28;20060;-50
2021/09/17 09:41:39;;;;;;;7.57;6.60;;;;;;;32.22;35.41;98538.00;5054677;28;20093;-50
2021/09/17 09:44:16;;;;;;;4.70;4.22;;;;;;;31.34;36.28;98537.03;5053365;28;20025;-49
2021/09/17 09:46:44;;;;;;;6.63;6.07;;;;;;;30.91;36.72;98531.09;5053652;28;20410;-49
2021/09/17 09:49:25;;;;;;;16.00;11.88;;;;;;;30.53;37.50;98534.09;5053347;28;20655;-49
2021/09/17 09:52:01;;;;;;;67.82;61.80;;;;;;;30.85;37.38;98548.69;5054593;28;20036;-50
2021/09/17 09:54:32;;;;;;;12.73;6.03;;;;;;;31.60;35.96;98542.88;5054594;28;20021;-49
2021/09/17 09:56:59;;;;;;;7.60;5.82;;;;;;;32.79;33.93;98540.59;5054500;28;20087;-50
2021/09/17 09:59:28;;;;;;;11.45;4.15;;;;;;;33.77;32.57;98528.03;5054648;28;20021;-50
2021/09/17 10:01:55;;;;;;;15.20;13.88;;;;;;;34.61;30.97;98526.41;5052995;28;20036;-48
2021/09/17 10:04:26;;;;;;;3.55;2.55;;;;;;;35.67;29.81;98519.41;5053332;28;20520;-50
2021/09/17 10:07:07;;;;;;;12.23;9.70;;;;;;;36.30;29.14;98517.72;5054367;28;20565;-51
2021/09/17 10:09:38;;;;;;;15.65;3.88;;;;;;;36.73;27.61;98523.59;5053035;28;20029;-50
2021/09/17 10:12:08;;;;;;;5.68;2.22;;;;;;;37.27;26.66;98513.78;5052872;28;20116;-50
2021/09/17 10:14:36;;;;;;;13.63;4.35;;;;;;;37.45;26.49;98510.31;5054128;28;20033;-50
2021/09/17 10:17:10;;;;;;;26.10;23.77;;;;;;;37.31;26.79;98513.81;5054116;28;20029;-50
2021/09/17 10:19:37;;;;;;;22.90;13.15;;;;;;;36.63;27.67;98514.13;5053807;28;20053;-50
2021/09/17 10:22:04;;;;;;;10.55;9.68;;;;;;;36.47;28.17;98516.31;5053981;28;20102;-50
2021/09/17 10:24:42;;;;;;;17.83;15.52;;;;;;;35.71;28.25;98506.56;5053325;28;20454;-50
2021/09/17 10:27:10;;;;;;;6.70;4.53;;;;;;;35.06;29.47;98508.44;5053987;28;20028;-50
2021/09/17 10:29:40;;;;;;;8.57;4.22;;;;;;;35.23;29.43;98507.13;5053900;28;20036;-50
2021/09/17 10:32:28;;;;;;;7.13;4.28;;;;;;;35.89;28.35;98501.31;5053823;28;20100;-50
2021/09/17 10:35:04;;;;;;;6.35;5.72;;;;;;;36.73;26.85;98507.19;5049712;28;20070;-50
2021/09/17 10:37:55;;;;;;;13.93;9.13;;;;;;;37.04;26.88;98503.06;5053956;28;20547;-50
2021/09/17 10:40:35;;;;;;;21.35;14.75;;;;;;;36.74;27.38;98500.53;5031365;28;20045;-50
2021/09/17 10:43:09;;;;;;;28.02;17.27;;;;;;;36.72;27.16;98500.91;5031528;28;20072;-50
2021/09/17 10:45:48;;;;;;;12.93;10.00;;;;;;;35.90;27.79;98500.94;5031419;28;20523;-50
2021/09/17 10:48:21;;;;;;;6.00;2.85;;;;;;;35.52;28.32;98491.91;5031446;28;20104;-50
2021/09/17 10:50:52;;;;;;;7.15;2.17;;;;;;;35.90;27.54;98489.19;5031342;28;20045;-50
2021/09/17 10:53:42;;;;;;;13.23;11.55;;;;;;;36.50;27.46;98501.88;5031391;28;20040;-50
2021/09/17 10:56:12;;;;;;;16.83;8.65;;;;;;;36.76;27.14;98490.78;5031252;28;20064;-50
2021/09/17 10:58:46;;;;;;;20.83;18.42;;;;;;;36.28;27.28;98482.59;5031217;28;20099;-50
2021/09/17 11:01:15;;;;;;;18.73;16.42;;;;;;;35.58;28.41;98487.69;5031084;28;20035;-50
2021/09/17 11:03:41;;;;;;;4.97;2.65;;;;;;;35.49;28.41;98483.66;5031034;28;20052;-50
2021/09/17 11:06:18;;;;;;;10.60;2.90;;;;;;;34.35;29.71;98472.66;5014371;28;20487;-50
2021/09/17 11:08:50;;;;;;;7.53;2.30;;;;;;;33.32;31.14;98473.03;5031023;28;20053;-48
2021/09/17 11:11:27;;;;;;;6.28;2.92;;;;;;;32.43;31.95;98480.69;5030837;28;20039;-48
2021/09/17 11:13:55;;;;;;;5.22;2.50;;;;;;;32.50;32.38;98477.38;5014398;28;20025;-47
2021/09/17 11:16:23;;;;;;;3.70;2.13;;;;;;;32.88;32.06;98469.72;5032644;28;20116;-48
2021/09/17 11:18:54;;;;;;;7.03;2.00;;;;;;;33.45;31.51;98470.19;5052706;28;20052;-48
2021/09/17 11:21:23;;;;;;;3.97;1.60;;;;;;;33.37;30.74;98467.31;5052814;28;20028;-48